Terminal Aerodrome Forecast
Issued by NWS

Current Version | Previous Version | Graphics & Text | Print | Product List | Glossary On
Versions: 1 2 3 4 5 6 7 8 9 10 11 12 13 14 15 16 17
593
FTUS41 KPBZ 210928 AAA
TAFHLG
TAF AMD
KHLG 210928Z 2109/2206 32004KT P6SM OVC008
     FM211400 33006KT P6SM BKN015
     FM211700 33006KT P6SM BKN035
     FM220400 32011KT P6SM BKN050
     FM220500 33012G18KT P6SM BKN050=

USA.gov is the U.S. government's official web portal to all federal, state and local government web resources and services.